sensor_id;sensor_type;location;lat;lon;timestamp;P1;durP1;ratioP1;P2;durP2;ratioP2
80985;SDS011;70451;51.226;6.412;2023-08-06T00:02:00;6.25;;;2.50;;
80985;SDS011;70451;51.226;6.412;2023-08-06T00:04:15;6.05;;;2.10;;
80985;SDS011;70451;51.226;6.412;2023-08-06T00:06:31;2.58;;;2.20;;
80985;SDS011;70451;51.226;6.412;2023-08-06T00:08:46;7.18;;;2.45;;
80985;SDS011;70451;51.226;6.412;2023-08-06T00:11:02;4.32;;;2.25;;
80985;SDS011;70451;51.226;6.412;2023-08-06T00:13:17;3.30;;;1.88;;
80985;SDS011;70451;51.226;6.412;2023-08-06T00:15:33;4.25;;;2.17;;
80985;SDS011;70451;51.226;6.412;2023-08-06T00:17:48;3.33;;;2.30;;
80985;SDS011;70451;51.226;6.412;2023-08-06T00:20:03;5.90;;;2.70;;
80985;SDS011;70451;51.226;6.412;2023-08-06T00:22:21;5.65;;;2.45;;
80985;SDS011;70451;51.226;6.412;2023-08-06T00:24:36;4.88;;;1.98;;
80985;SDS011;70451;51.226;6.412;2023-08-06T00:26:51;7.65;;;2.15;;
80985;SDS011;70451;51.226;6.412;2023-08-06T00:29:07;3.45;;;2.17;;
80985;SDS011;70451;51.226;6.412;2023-08-06T00:31:22;4.30;;;2.70;;
80985;SDS011;70451;51.226;6.412;2023-08-06T00:33:37;5.78;;;2.45;;
80985;SDS011;70451;51.226;6.412;2023-08-06T00:35:53;5.07;;;2.20;;
80985;SDS011;70451;51.226;6.412;2023-08-06T00:38:08;3.80;;;2.30;;
80985;SDS011;70451;51.226;6.412;2023-08-06T00:40:23;3.28;;;2.25;;
80985;SDS011;70451;51.226;6.412;2023-08-06T00:42:39;3.92;;;2.40;;
80985;SDS011;70451;51.226;6.412;2023-08-06T00:44:54;3.30;;;2.15;;
80985;SDS011;70451;51.226;6.412;2023-08-06T00:47:09;3.25;;;2.38;;
80985;SDS011;70451;51.226;6.412;2023-08-06T00:49:25;5.20;;;2.38;;
80985;SDS011;70451;51.226;6.412;2023-08-06T00:51:40;3.85;;;2.10;;
80985;SDS011;70451;51.226;6.412;2023-08-06T00:53:56;5.38;;;2.10;;
80985;SDS011;70451;51.226;6.412;2023-08-06T00:56:12;6.43;;;2.75;;
80985;SDS011;70451;51.226;6.412;2023-08-06T00:58:28;3.65;;;2.45;;
80985;SDS011;70451;51.226;6.412;2023-08-06T01:00:43;4.50;;;2.28;;
80985;SDS011;70451;51.226;6.412;2023-08-06T01:02:59;4.03;;;2.60;;
80985;SDS011;70451;51.226;6.412;2023-08-06T01:05:15;4.80;;;2.03;;
80985;SDS011;70451;51.226;6.412;2023-08-06T01:07:33;4.55;;;2.85;;
80985;SDS011;70451;51.226;6.412;2023-08-06T01:10:22;4.20;;;2.45;;
80985;SDS011;70451;51.226;6.412;2023-08-06T01:12:44;3.28;;;1.83;;
80985;SDS011;70451;51.226;6.412;2023-08-06T01:15:23;4.68;;;2.53;;
80985;SDS011;70451;51.226;6.412;2023-08-06T01:17:42;2.95;;;2.20;;
80985;SDS011;70451;51.226;6.412;2023-08-06T01:20:00;4.80;;;2.45;;
80985;SDS011;70451;51.226;6.412;2023-08-06T01:22:15;5.65;;;2.60;;
80985;SDS011;70451;51.226;6.412;2023-08-06T01:24:30;4.25;;;2.85;;
80985;SDS011;70451;51.226;6.412;2023-08-06T01:26:48;4.13;;;2.47;;
80985;SDS011;70451;51.226;6.412;2023-08-06T01:29:20;3.95;;;2.25;;
80985;SDS011;70451;51.226;6.412;2023-08-06T01:31:41;3.63;;;2.33;;
80985;SDS011;70451;51.226;6.412;2023-08-06T01:33:58;6.43;;;2.42;;
80985;SDS011;70451;51.226;6.412;2023-08-06T01:36:16;4.00;;;2.05;;
80985;SDS011;70451;51.226;6.412;2023-08-06T01:38:33;3.30;;;2.22;;
80985;SDS011;70451;51.226;6.412;2023-08-06T01:40:49;4.72;;;2.00;;
80985;SDS011;70451;51.226;6.412;2023-08-06T01:43:04;3.53;;;2.10;;
80985;SDS011;70451;51.226;6.412;2023-08-06T01:45:20;4.07;;;2.13;;
80985;SDS011;70451;51.226;6.412;2023-08-06T01:47:35;2.88;;;2.10;;
80985;SDS011;70451;51.226;6.412;2023-08-06T01:49:51;3.72;;;2.45;;
80985;SDS011;70451;51.226;6.412;2023-08-06T01:52:06;4.28;;;2.40;;
80985;SDS011;70451;51.226;6.412;2023-08-06T01:54:22;4.15;;;2.55;;
80985;SDS011;70451;51.226;6.412;2023-08-06T01:56:37;5.47;;;1.95;;
80985;SDS011;70451;51.226;6.412;2023-08-06T01:58:53;4.23;;;2.50;;
80985;SDS011;70451;51.226;6.412;2023-08-06T02:01:08;5.20;;;2.03;;
80985;SDS011;70451;51.226;6.412;2023-08-06T02:03:23;7.15;;;2.22;;
80985;SDS011;70451;51.226;6.412;2023-08-06T02:05:39;5.50;;;2.10;;
80985;SDS011;70451;51.226;6.412;2023-08-06T02:07:55;5.35;;;2.33;;
80985;SDS011;70451;51.226;6.412;2023-08-06T02:10:10;4.38;;;2.40;;
80985;SDS011;70451;51.226;6.412;2023-08-06T02:12:25;4.37;;;2.43;;
80985;SDS011;70451;51.226;6.412;2023-08-06T02:14:41;5.07;;;2.35;;
80985;SDS011;70451;51.226;6.412;2023-08-06T02:16:56;2.72;;;2.05;;
80985;SDS011;70451;51.226;6.412;2023-08-06T02:19:11;3.58;;;2.38;;
80985;SDS011;70451;51.226;6.412;2023-08-06T02:21:26;3.10;;;2.08;;
80985;SDS011;70451;51.226;6.412;2023-08-06T02:23:42;3.60;;;2.13;;
80985;SDS011;70451;51.226;6.412;2023-08-06T02:26:01;3.55;;;2.13;;
80985;SDS011;70451;51.226;6.412;2023-08-06T02:28:17;3.28;;;2.30;;
80985;SDS011;70451;51.226;6.412;2023-08-06T02:30:32;3.53;;;1.98;;
80985;SDS011;70451;51.226;6.412;2023-08-06T02:32:48;4.82;;;2.10;;
80985;SDS011;70451;51.226;6.412;2023-08-06T02:35:03;4.00;;;2.10;;
80985;SDS011;70451;51.226;6.412;2023-08-06T02:37:18;4.65;;;2.00;;
80985;SDS011;70451;51.226;6.412;2023-08-06T02:39:34;4.85;;;2.28;;
80985;SDS011;70451;51.226;6.412;2023-08-06T02:41:50;3.60;;;2.25;;
80985;SDS011;70451;51.226;6.412;2023-08-06T02:44:06;3.50;;;1.80;;
80985;SDS011;70451;51.226;6.412;2023-08-06T02:46:21;3.83;;;1.90;;
80985;SDS011;70451;51.226;6.412;2023-08-06T02:48:36;3.65;;;2.17;;
80985;SDS011;70451;51.226;6.412;2023-08-06T02:50:52;3.78;;;2.20;;
80985;SDS011;70451;51.226;6.412;2023-08-06T02:53:07;3.13;;;2.15;;
80985;SDS011;70451;51.226;6.412;2023-08-06T02:55:23;3.35;;;2.38;;
80985;SDS011;70451;51.226;6.412;2023-08-06T02:57:38;3.17;;;2.00;;
80985;SDS011;70451;51.226;6.412;2023-08-06T02:59:54;12.45;;;3.10;;
80985;SDS011;70451;51.226;6.412;2023-08-06T03:02:09;5.15;;;2.05;;
80985;SDS011;70451;51.226;6.412;2023-08-06T03:04:24;3.20;;;2.10;;
80985;SDS011;70451;51.226;6.412;2023-08-06T03:06:40;3.20;;;2.10;;
80985;SDS011;70451;51.226;6.412;2023-08-06T03:08:55;4.28;;;2.08;;
80985;SDS011;70451;51.226;6.412;2023-08-06T03:11:10;4.68;;;2.22;;
80985;SDS011;70451;51.226;6.412;2023-08-06T03:13:26;3.63;;;2.20;;
80985;SDS011;70451;51.226;6.412;2023-08-06T03:15:41;3.80;;;2.10;;
80985;SDS011;70451;51.226;6.412;2023-08-06T03:17:56;4.50;;;1.98;;
80985;SDS011;70451;51.226;6.412;2023-08-06T03:20:12;4.63;;;2.03;;
80985;SDS011;70451;51.226;6.412;2023-08-06T03:22:27;3.28;;;2.50;;
80985;SDS011;70451;51.226;6.412;2023-08-06T03:24:42;2.65;;;1.80;;
80985;SDS011;70451;51.226;6.412;2023-08-06T03:26:58;2.47;;;1.70;;
80985;SDS011;70451;51.226;6.412;2023-08-06T03:29:13;3.28;;;2.40;;
80985;SDS011;70451;51.226;6.412;2023-08-06T03:31:28;4.07;;;2.40;;
80985;SDS011;70451;51.226;6.412;2023-08-06T03:33:43;4.18;;;1.95;;
80985;SDS011;70451;51.226;6.412;2023-08-06T03:35:59;4.68;;;1.83;;
80985;SDS011;70451;51.226;6.412;2023-08-06T03:38:14;4.65;;;1.80;;
80985;SDS011;70451;51.226;6.412;2023-08-06T03:40:30;3.85;;;2.00;;
80985;SDS011;70451;51.226;6.412;2023-08-06T03:42:45;3.97;;;1.88;;
80985;SDS011;70451;51.226;6.412;2023-08-06T03:45:00;3.97;;;1.80;;
80985;SDS011;70451;51.226;6.412;2023-08-06T03:47:16;3.17;;;1.90;;
80985;SDS011;70451;51.226;6.412;2023-08-06T03:49:31;6.13;;;2.40;;
80985;SDS011;70451;51.226;6.412;2023-08-06T03:51:46;2.80;;;1.95;;
80985;SDS011;70451;51.226;6.412;2023-08-06T03:54:02;3.42;;;2.20;;
80985;SDS011;70451;51.226;6.412;2023-08-06T03:56:17;3.88;;;2.10;;
80985;SDS011;70451;51.226;6.412;2023-08-06T03:58:32;4.00;;;2.28;;
80985;SDS011;70451;51.226;6.412;2023-08-06T04:00:48;4.20;;;2.05;;
80985;SDS011;70451;51.226;6.412;2023-08-06T04:03:03;3.08;;;2.10;;
80985;SDS011;70451;51.226;6.412;2023-08-06T04:05:18;3.90;;;2.20;;
80985;SDS011;70451;51.226;6.412;2023-08-06T04:07:34;4.15;;;2.15;;
80985;SDS011;70451;51.226;6.412;2023-08-06T04:09:53;3.45;;;2.00;;
80985;SDS011;70451;51.226;6.412;2023-08-06T04:12:10;3.03;;;2.17;;
80985;SDS011;70451;51.226;6.412;2023-08-06T04:14:28;2.88;;;2.08;;
80985;SDS011;70451;51.226;6.412;2023-08-06T04:16:43;4.05;;;2.15;;
80985;SDS011;70451;51.226;6.412;2023-08-06T04:18:58;4.78;;;2.30;;
80985;SDS011;70451;51.226;6.412;2023-08-06T04:21:14;3.60;;;2.03;;
80985;SDS011;70451;51.226;6.412;2023-08-06T04:23:29;3.88;;;2.30;;
80985;SDS011;70451;51.226;6.412;2023-08-06T04:25:44;3.85;;;2.10;;
80985;SDS011;70451;51.226;6.412;2023-08-06T04:28:00;2.85;;;1.95;;
80985;SDS011;70451;51.226;6.412;2023-08-06T04:30:15;3.17;;;2.00;;
80985;SDS011;70451;51.226;6.412;2023-08-06T04:32:30;2.60;;;1.75;;
80985;SDS011;70451;51.226;6.412;2023-08-06T04:34:46;4.50;;;2.15;;
80985;SDS011;70451;51.226;6.412;2023-08-06T04:37:03;4.10;;;2.03;;
80985;SDS011;70451;51.226;6.412;2023-08-06T04:39:19;4.18;;;2.13;;
80985;SDS011;70451;51.226;6.412;2023-08-06T04:41:34;2.80;;;2.08;;
80985;SDS011;70451;51.226;6.412;2023-08-06T04:43:49;3.30;;;2.40;;
80985;SDS011;70451;51.226;6.412;2023-08-06T04:46:05;4.85;;;2.20;;
80985;SDS011;70451;51.226;6.412;2023-08-06T04:48:20;3.75;;;2.28;;
80985;SDS011;70451;51.226;6.412;2023-08-06T04:50:35;3.33;;;2.03;;
80985;SDS011;70451;51.226;6.412;2023-08-06T04:52:51;4.45;;;2.35;;
80985;SDS011;70451;51.226;6.412;2023-08-06T04:55:06;3.22;;;2.10;;
80985;SDS011;70451;51.226;6.412;2023-08-06T04:57:21;4.47;;;2.30;;
80985;SDS011;70451;51.226;6.412;2023-08-06T04:59:37;3.38;;;1.85;;
80985;SDS011;70451;51.226;6.412;2023-08-06T05:01:52;5.07;;;2.47;;
80985;SDS011;70451;51.226;6.412;2023-08-06T05:04:07;3.80;;;2.28;;
80985;SDS011;70451;51.226;6.412;2023-08-06T05:06:23;2.85;;;1.95;;
80985;SDS011;70451;51.226;6.412;2023-08-06T05:08:38;3.80;;;1.98;;
80985;SDS011;70451;51.226;6.412;2023-08-06T05:10:53;4.78;;;2.10;;
80985;SDS011;70451;51.226;6.412;2023-08-06T05:13:08;3.50;;;1.85;;
80985;SDS011;70451;51.226;6.412;2023-08-06T05:15:24;3.20;;;2.22;;
80985;SDS011;70451;51.226;6.412;2023-08-06T05:17:40;3.53;;;1.90;;
80985;SDS011;70451;51.226;6.412;2023-08-06T05:19:55;4.68;;;1.92;;
80985;SDS011;70451;51.226;6.412;2023-08-06T05:22:11;3.25;;;1.60;;
80985;SDS011;70451;51.226;6.412;2023-08-06T05:24:26;2.15;;;1.30;;
80985;SDS011;70451;51.226;6.412;2023-08-06T05:26:41;2.25;;;1.40;;
80985;SDS011;70451;51.226;6.412;2023-08-06T05:28:57;1.55;;;1.20;;
80985;SDS011;70451;51.226;6.412;2023-08-06T05:31:12;2.97;;;1.30;;
80985;SDS011;70451;51.226;6.412;2023-08-06T05:33:28;3.28;;;1.88;;
80985;SDS011;70451;51.226;6.412;2023-08-06T05:35:43;2.28;;;1.20;;
80985;SDS011;70451;51.226;6.412;2023-08-06T05:37:59;3.42;;;1.50;;
80985;SDS011;70451;51.226;6.412;2023-08-06T05:40:14;4.07;;;1.50;;
80985;SDS011;70451;51.226;6.412;2023-08-06T05:42:29;3.42;;;1.40;;
80985;SDS011;70451;51.226;6.412;2023-08-06T05:44:45;4.22;;;1.40;;
80985;SDS011;70451;51.226;6.412;2023-08-06T05:47:00;6.90;;;1.75;;
80985;SDS011;70451;51.226;6.412;2023-08-06T05:49:15;2.42;;;0.82;;
80985;SDS011;70451;51.226;6.412;2023-08-06T05:51:31;11.73;;;1.38;;
80985;SDS011;70451;51.226;6.412;2023-08-06T05:53:46;2.88;;;1.42;;
80985;SDS011;70451;51.226;6.412;2023-08-06T05:56:02;1.95;;;1.10;;
80985;SDS011;70451;51.226;6.412;2023-08-06T05:58:17;1.65;;;1.00;;
80985;SDS011;70451;51.226;6.412;2023-08-06T06:00:34;1.10;;;0.77;;
80985;SDS011;70451;51.226;6.412;2023-08-06T06:02:50;2.00;;;1.05;;
80985;SDS011;70451;51.226;6.412;2023-08-06T06:05:05;1.90;;;1.20;;
80985;SDS011;70451;51.226;6.412;2023-08-06T06:07:21;1.45;;;1.05;;
80985;SDS011;70451;51.226;6.412;2023-08-06T06:09:36;2.45;;;1.40;;
80985;SDS011;70451;51.226;6.412;2023-08-06T06:11:51;1.50;;;0.90;;
80985;SDS011;70451;51.226;6.412;2023-08-06T06:14:06;2.13;;;0.98;;
80985;SDS011;70451;51.226;6.412;2023-08-06T06:16:22;2.08;;;1.20;;
80985;SDS011;70451;51.226;6.412;2023-08-06T06:18:37;1.52;;;1.13;;
80985;SDS011;70451;51.226;6.412;2023-08-06T06:20:52;2.10;;;1.33;;
80985;SDS011;70451;51.226;6.412;2023-08-06T06:23:08;2.83;;;1.10;;
80985;SDS011;70451;51.226;6.412;2023-08-06T06:25:23;2.05;;;1.00;;
80985;SDS011;70451;51.226;6.412;2023-08-06T06:27:38;2.90;;;1.13;;
80985;SDS011;70451;51.226;6.412;2023-08-06T06:29:53;2.20;;;1.17;;
80985;SDS011;70451;51.226;6.412;2023-08-06T06:32:09;1.90;;;1.40;;
80985;SDS011;70451;51.226;6.412;2023-08-06T06:34:24;2.30;;;1.40;;
80985;SDS011;70451;51.226;6.412;2023-08-06T06:36:40;2.25;;;1.50;;
80985;SDS011;70451;51.226;6.412;2023-08-06T06:38:55;2.05;;;1.52;;
80985;SDS011;70451;51.226;6.412;2023-08-06T06:41:10;3.97;;;1.55;;
80985;SDS011;70451;51.226;6.412;2023-08-06T06:43:26;2.28;;;1.13;;
80985;SDS011;70451;51.226;6.412;2023-08-06T06:45:41;3.28;;;1.52;;
80985;SDS011;70451;51.226;6.412;2023-08-06T06:47:57;4.18;;;1.50;;
80985;SDS011;70451;51.226;6.412;2023-08-06T06:50:12;3.17;;;1.80;;
80985;SDS011;70451;51.226;6.412;2023-08-06T06:52:27;3.80;;;2.05;;
80985;SDS011;70451;51.226;6.412;2023-08-06T06:54:43;3.13;;;1.73;;
80985;SDS011;70451;51.226;6.412;2023-08-06T06:56:58;2.50;;;1.60;;
80985;SDS011;70451;51.226;6.412;2023-08-06T06:59:13;2.90;;;1.83;;
80985;SDS011;70451;51.226;6.412;2023-08-06T07:01:28;2.03;;;1.50;;
80985;SDS011;70451;51.226;6.412;2023-08-06T07:03:44;1.60;;;1.35;;
80985;SDS011;70451;51.226;6.412;2023-08-06T07:05:59;3.97;;;1.58;;
80985;SDS011;70451;51.226;6.412;2023-08-06T07:08:14;2.42;;;1.42;;
80985;SDS011;70451;51.226;6.412;2023-08-06T07:10:30;3.13;;;1.90;;
80985;SDS011;70451;51.226;6.412;2023-08-06T07:12:45;2.40;;;1.50;;
80985;SDS011;70451;51.226;6.412;2023-08-06T07:15:01;2.42;;;1.33;;
80985;SDS011;70451;51.226;6.412;2023-08-06T07:17:16;2.60;;;1.60;;
80985;SDS011;70451;51.226;6.412;2023-08-06T07:19:31;2.50;;;1.52;;
80985;SDS011;70451;51.226;6.412;2023-08-06T07:21:46;3.35;;;1.90;;
80985;SDS011;70451;51.226;6.412;2023-08-06T07:24:02;3.33;;;1.70;;
80985;SDS011;70451;51.226;6.412;2023-08-06T07:26:17;1.83;;;1.33;;
80985;SDS011;70451;51.226;6.412;2023-08-06T07:28:33;3.00;;;1.80;;
80985;SDS011;70451;51.226;6.412;2023-08-06T07:30:48;3.70;;;1.75;;
80985;SDS011;70451;51.226;6.412;2023-08-06T07:33:03;2.08;;;1.52;;
80985;SDS011;70451;51.226;6.412;2023-08-06T07:35:19;2.63;;;1.58;;
80985;SDS011;70451;51.226;6.412;2023-08-06T07:37:34;3.90;;;1.90;;
80985;SDS011;70451;51.226;6.412;2023-08-06T07:39:49;3.60;;;2.00;;
80985;SDS011;70451;51.226;6.412;2023-08-06T07:42:05;3.17;;;1.80;;
80985;SDS011;70451;51.226;6.412;2023-08-06T07:44:22;2.65;;;1.55;;
80985;SDS011;70451;51.226;6.412;2023-08-06T07:46:37;3.75;;;1.75;;
80985;SDS011;70451;51.226;6.412;2023-08-06T07:48:53;1.90;;;1.52;;
80985;SDS011;70451;51.226;6.412;2023-08-06T07:51:09;2.65;;;1.50;;
80985;SDS011;70451;51.226;6.412;2023-08-06T07:53:24;2.38;;;1.40;;
80985;SDS011;70451;51.226;6.412;2023-08-06T07:55:47;1.92;;;1.42;;
80985;SDS011;70451;51.226;6.412;2023-08-06T07:58:06;3.47;;;1.52;;
80985;SDS011;70451;51.226;6.412;2023-08-06T08:00:23;2.40;;;1.80;;
80985;SDS011;70451;51.226;6.412;2023-08-06T08:02:39;3.85;;;1.98;;
80985;SDS011;70451;51.226;6.412;2023-08-06T08:04:54;3.85;;;2.38;;
80985;SDS011;70451;51.226;6.412;2023-08-06T08:07:10;5.82;;;2.72;;
80985;SDS011;70451;51.226;6.412;2023-08-06T08:09:25;4.07;;;2.60;;
80985;SDS011;70451;51.226;6.412;2023-08-06T08:11:41;3.50;;;2.55;;
80985;SDS011;70451;51.226;6.412;2023-08-06T08:13:57;3.85;;;2.50;;
80985;SDS011;70451;51.226;6.412;2023-08-06T08:16:12;4.90;;;3.10;;
80985;SDS011;70451;51.226;6.412;2023-08-06T08:18:27;4.22;;;2.78;;
80985;SDS011;70451;51.226;6.412;2023-08-06T08:20:43;4.55;;;2.88;;
80985;SDS011;70451;51.226;6.412;2023-08-06T08:22:59;4.28;;;2.45;;
80985;SDS011;70451;51.226;6.412;2023-08-06T08:25:15;3.08;;;1.95;;
80985;SDS011;70451;51.226;6.412;2023-08-06T08:27:31;3.03;;;2.00;;
80985;SDS011;70451;51.226;6.412;2023-08-06T08:29:47;4.20;;;2.17;;
80985;SDS011;70451;51.226;6.412;2023-08-06T08:32:02;2.60;;;1.98;;
80985;SDS011;70451;51.226;6.412;2023-08-06T08:34:17;2.85;;;2.10;;
80985;SDS011;70451;51.226;6.412;2023-08-06T08:36:33;3.88;;;2.38;;
80985;SDS011;70451;51.226;6.412;2023-08-06T08:38:48;2.95;;;2.00;;
80985;SDS011;70451;51.226;6.412;2023-08-06T08:41:04;5.35;;;2.22;;
80985;SDS011;70451;51.226;6.412;2023-08-06T08:43:20;3.83;;;2.42;;
80985;SDS011;70451;51.226;6.412;2023-08-06T08:45:39;4.25;;;2.65;;
80985;SDS011;70451;51.226;6.412;2023-08-06T08:47:54;5.50;;;2.95;;
80985;SDS011;70451;51.226;6.412;2023-08-06T08:50:10;4.18;;;2.70;;
80985;SDS011;70451;51.226;6.412;2023-08-06T08:52:26;4.22;;;3.17;;
80985;SDS011;70451;51.226;6.412;2023-08-06T08:54:45;5.30;;;3.33;;
80985;SDS011;70451;51.226;6.412;2023-08-06T08:57:02;4.80;;;3.58;;
80985;SDS011;70451;51.226;6.412;2023-08-06T08:59:17;6.82;;;4.00;;
80985;SDS011;70451;51.226;6.412;2023-08-06T09:01:33;6.68;;;3.70;;
80985;SDS011;70451;51.226;6.412;2023-08-06T09:03:49;4.90;;;2.53;;
80985;SDS011;70451;51.226;6.412;2023-08-06T09:06:06;5.80;;;3.13;;
80985;SDS011;70451;51.226;6.412;2023-08-06T09:08:24;4.07;;;2.72;;
80985;SDS011;70451;51.226;6.412;2023-08-06T09:10:46;3.55;;;2.42;;
80985;SDS011;70451;51.226;6.412;2023-08-06T09:13:03;5.38;;;1.85;;
80985;SDS011;70451;51.226;6.412;2023-08-06T09:15:19;3.20;;;1.92;;
80985;SDS011;70451;51.226;6.412;2023-08-06T09:17:36;3.00;;;1.85;;
80985;SDS011;70451;51.226;6.412;2023-08-06T09:19:51;3.58;;;1.70;;
80985;SDS011;70451;51.226;6.412;2023-08-06T09:22:07;3.10;;;1.63;;
80985;SDS011;70451;51.226;6.412;2023-08-06T09:24:28;4.38;;;2.13;;
80985;SDS011;70451;51.226;6.412;2023-08-06T09:26:44;4.18;;;1.88;;
80985;SDS011;70451;51.226;6.412;2023-08-06T09:29:00;5.47;;;2.22;;
80985;SDS011;70451;51.226;6.412;2023-08-06T09:31:15;3.70;;;2.17;;
80985;SDS011;70451;51.226;6.412;2023-08-06T09:33:30;2.95;;;1.85;;
80985;SDS011;70451;51.226;6.412;2023-08-06T09:35:46;3.17;;;1.88;;
80985;SDS011;70451;51.226;6.412;2023-08-06T09:38:05;2.25;;;1.60;;
80985;SDS011;70451;51.226;6.412;2023-08-06T09:42:42;2.53;;;1.90;;
80985;SDS011;70451;51.226;6.412;2023-08-06T09:45:05;2.33;;;2.00;;
80985;SDS011;70451;51.226;6.412;2023-08-06T09:47:21;2.25;;;1.70;;
80985;SDS011;70451;51.226;6.412;2023-08-06T09:51:54;2.10;;;1.70;;
80985;SDS011;70451;51.226;6.412;2023-08-06T09:54:13;2.92;;;1.80;;
80985;SDS011;70451;51.226;6.412;2023-08-06T09:56:30;1.73;;;1.63;;
80985;SDS011;70451;51.226;6.412;2023-08-06T09:58:52;1.92;;;1.65;;
80985;SDS011;70451;51.226;6.412;2023-08-06T10:01:08;2.00;;;1.70;;
80985;SDS011;70451;51.226;6.412;2023-08-06T10:03:23;2.13;;;1.60;;
80985;SDS011;70451;51.226;6.412;2023-08-06T10:05:40;2.15;;;1.42;;
80985;SDS011;70451;51.226;6.412;2023-08-06T10:07:55;1.60;;;1.40;;
80985;SDS011;70451;51.226;6.412;2023-08-06T10:10:12;1.80;;;1.50;;
80985;SDS011;70451;51.226;6.412;2023-08-06T10:12:28;2.35;;;1.75;;
80985;SDS011;70451;51.226;6.412;2023-08-06T10:14:45;2.10;;;1.67;;
80985;SDS011;70451;51.226;6.412;2023-08-06T10:17:02;2.55;;;1.77;;
80985;SDS011;70451;51.226;6.412;2023-08-06T10:19:18;3.30;;;1.75;;
80985;SDS011;70451;51.226;6.412;2023-08-06T10:21:35;2.35;;;1.70;;
80985;SDS011;70451;51.226;6.412;2023-08-06T10:23:53;3.17;;;1.90;;
80985;SDS011;70451;51.226;6.412;2023-08-06T10:26:09;1.73;;;1.50;;
80985;SDS011;70451;51.226;6.412;2023-08-06T10:28:33;1.63;;;1.10;;
80985;SDS011;70451;51.226;6.412;2023-08-06T10:30:51;2.85;;;1.38;;
80985;SDS011;70451;51.226;6.412;2023-08-06T10:33:07;3.08;;;1.13;;
80985;SDS011;70451;51.226;6.412;2023-08-06T10:35:35;1.75;;;1.00;;
80985;SDS011;70451;51.226;6.412;2023-08-06T10:37:50;1.88;;;1.20;;
80985;SDS011;70451;51.226;6.412;2023-08-06T10:40:06;4.00;;;1.80;;
80985;SDS011;70451;51.226;6.412;2023-08-06T10:42:26;3.92;;;2.25;;
80985;SDS011;70451;51.226;6.412;2023-08-06T10:47:37;4.47;;;2.38;;
80985;SDS011;70451;51.226;6.412;2023-08-06T10:49:54;8.15;;;3.15;;
80985;SDS011;70451;51.226;6.412;2023-08-06T10:52:09;6.57;;;2.85;;
80985;SDS011;70451;51.226;6.412;2023-08-06T10:54:24;3.97;;;2.83;;
80985;SDS011;70451;51.226;6.412;2023-08-06T10:56:40;6.70;;;3.67;;
80985;SDS011;70451;51.226;6.412;2023-08-06T10:58:57;4.93;;;3.28;;
80985;SDS011;70451;51.226;6.412;2023-08-06T11:01:12;6.75;;;3.55;;
80985;SDS011;70451;51.226;6.412;2023-08-06T11:03:28;6.55;;;3.42;;
80985;SDS011;70451;51.226;6.412;2023-08-06T11:05:49;6.50;;;2.97;;
80985;SDS011;70451;51.226;6.412;2023-08-06T11:08:05;10.25;;;3.63;;
80985;SDS011;70451;51.226;6.412;2023-08-06T11:10:20;5.57;;;3.28;;
80985;SDS011;70451;51.226;6.412;2023-08-06T11:12:36;5.95;;;3.35;;
80985;SDS011;70451;51.226;6.412;2023-08-06T11:14:51;4.38;;;2.38;;
80985;SDS011;70451;51.226;6.412;2023-08-06T11:17:07;5.85;;;2.67;;
80985;SDS011;70451;51.226;6.412;2023-08-06T11:19:23;7.88;;;3.38;;
80985;SDS011;70451;51.226;6.412;2023-08-06T11:21:39;3.88;;;2.42;;
80985;SDS011;70451;51.226;6.412;2023-08-06T11:23:55;4.68;;;2.40;;
80985;SDS011;70451;51.226;6.412;2023-08-06T11:26:10;4.35;;;2.17;;
80985;SDS011;70451;51.226;6.412;2023-08-06T11:28:25;4.68;;;2.63;;
80985;SDS011;70451;51.226;6.412;2023-08-06T11:30:41;4.18;;;2.05;;
80985;SDS011;70451;51.226;6.412;2023-08-06T11:32:56;6.07;;;2.40;;
80985;SDS011;70451;51.226;6.412;2023-08-06T11:35:12;5.22;;;2.58;;
80985;SDS011;70451;51.226;6.412;2023-08-06T11:37:28;6.10;;;2.78;;
80985;SDS011;70451;51.226;6.412;2023-08-06T11:39:46;4.55;;;2.40;;
80985;SDS011;70451;51.226;6.412;2023-08-06T11:42:04;5.40;;;2.53;;
80985;SDS011;70451;51.226;6.412;2023-08-06T11:44:21;4.53;;;2.53;;
80985;SDS011;70451;51.226;6.412;2023-08-06T11:46:53;3.85;;;2.40;;
80985;SDS011;70451;51.226;6.412;2023-08-06T11:49:10;6.15;;;2.17;;
80985;SDS011;70451;51.226;6.412;2023-08-06T11:51:26;5.85;;;2.22;;
80985;SDS011;70451;51.226;6.412;2023-08-06T11:53:41;4.43;;;3.05;;
80985;SDS011;70451;51.226;6.412;2023-08-06T11:56:03;4.15;;;2.47;;
80985;SDS011;70451;51.226;6.412;2023-08-06T11:58:18;5.68;;;2.45;;
80985;SDS011;70451;51.226;6.412;2023-08-06T12:00:34;4.68;;;2.65;;
80985;SDS011;70451;51.226;6.412;2023-08-06T12:02:51;3.33;;;2.33;;
80985;SDS011;70451;51.226;6.412;2023-08-06T12:05:14;3.92;;;2.88;;
80985;SDS011;70451;51.226;6.412;2023-08-06T12:07:38;3.08;;;2.40;;
80985;SDS011;70451;51.226;6.412;2023-08-06T12:09:55;3.90;;;2.45;;
80985;SDS011;70451;51.226;6.412;2023-08-06T12:12:10;4.55;;;2.55;;
80985;SDS011;70451;51.226;6.412;2023-08-06T12:14:25;3.92;;;2.90;;
80985;SDS011;70451;51.226;6.412;2023-08-06T12:16:41;4.68;;;2.60;;
80985;SDS011;70451;51.226;6.412;2023-08-06T12:18:56;3.90;;;2.60;;
80985;SDS011;70451;51.226;6.412;2023-08-06T12:21:11;5.32;;;2.38;;
80985;SDS011;70451;51.226;6.412;2023-08-06T12:23:26;3.47;;;2.20;;
80985;SDS011;70451;51.226;6.412;2023-08-06T12:25:42;3.92;;;2.13;;
80985;SDS011;70451;51.226;6.412;2023-08-06T12:27:57;4.35;;;2.15;;
80985;SDS011;70451;51.226;6.412;2023-08-06T12:30:12;4.05;;;2.70;;
80985;SDS011;70451;51.226;6.412;2023-08-06T12:32:28;4.15;;;2.13;;
80985;SDS011;70451;51.226;6.412;2023-08-06T12:34:43;4.97;;;2.22;;
80985;SDS011;70451;51.226;6.412;2023-08-06T12:36:58;3.63;;;2.05;;
80985;SDS011;70451;51.226;6.412;2023-08-06T12:39:14;4.60;;;2.28;;
80985;SDS011;70451;51.226;6.412;2023-08-06T12:41:29;2.88;;;1.70;;
80985;SDS011;70451;51.226;6.412;2023-08-06T12:43:44;3.65;;;1.88;;
80985;SDS011;70451;51.226;6.412;2023-08-06T12:46:00;3.80;;;2.00;;
80985;SDS011;70451;51.226;6.412;2023-08-06T12:48:15;3.42;;;2.10;;
80985;SDS011;70451;51.226;6.412;2023-08-06T12:50:30;3.53;;;1.70;;
80985;SDS011;70451;51.226;6.412;2023-08-06T12:52:47;3.72;;;2.10;;
80985;SDS011;70451;51.226;6.412;2023-08-06T12:55:03;3.50;;;2.10;;
80985;SDS011;70451;51.226;6.412;2023-08-06T12:57:18;4.75;;;2.00;;
80985;SDS011;70451;51.226;6.412;2023-08-06T12:59:34;4.82;;;2.38;;
80985;SDS011;70451;51.226;6.412;2023-08-06T13:01:51;4.88;;;2.30;;
80985;SDS011;70451;51.226;6.412;2023-08-06T13:04:06;5.60;;;2.42;;
80985;SDS011;70451;51.226;6.412;2023-08-06T13:06:22;4.30;;;2.40;;
80985;SDS011;70451;51.226;6.412;2023-08-06T13:08:37;4.40;;;2.38;;
80985;SDS011;70451;51.226;6.412;2023-08-06T13:10:52;4.38;;;2.40;;
80985;SDS011;70451;51.226;6.412;2023-08-06T13:13:08;3.78;;;2.20;;
80985;SDS011;70451;51.226;6.412;2023-08-06T13:15:25;4.28;;;2.45;;
80985;SDS011;70451;51.226;6.412;2023-08-06T13:17:40;4.95;;;2.33;;
80985;SDS011;70451;51.226;6.412;2023-08-06T13:19:55;4.25;;;2.25;;
80985;SDS011;70451;51.226;6.412;2023-08-06T13:22:11;4.32;;;2.72;;
80985;SDS011;70451;51.226;6.412;2023-08-06T13:24:26;4.72;;;2.97;;
80985;SDS011;70451;51.226;6.412;2023-08-06T13:26:42;5.93;;;2.38;;
80985;SDS011;70451;51.226;6.412;2023-08-06T13:28:58;2.92;;;2.03;;
80985;SDS011;70451;51.226;6.412;2023-08-06T13:31:13;6.95;;;2.38;;
80985;SDS011;70451;51.226;6.412;2023-08-06T13:33:29;5.20;;;2.35;;
80985;SDS011;70451;51.226;6.412;2023-08-06T13:35:44;4.55;;;2.28;;
80985;SDS011;70451;51.226;6.412;2023-08-06T13:37:59;6.07;;;2.90;;
80985;SDS011;70451;51.226;6.412;2023-08-06T13:40:17;5.05;;;2.50;;
80985;SDS011;70451;51.226;6.412;2023-08-06T13:42:33;6.80;;;2.70;;
80985;SDS011;70451;51.226;6.412;2023-08-06T13:44:48;5.03;;;2.42;;
80985;SDS011;70451;51.226;6.412;2023-08-06T13:47:03;5.40;;;2.90;;
80985;SDS011;70451;51.226;6.412;2023-08-06T13:49:19;5.22;;;2.53;;